createdAt,value
2022-08-20T00:02:19.025Z,8.82
2022-08-20T00:04:50.539Z,9.00
2022-08-20T00:07:22.359Z,6.85
2022-08-20T00:09:53.862Z,7.68
2022-08-20T00:12:25.807Z,10.32
2022-08-20T00:14:57.341Z,8.98
2022-08-20T00:17:36.395Z,9.27
2022-08-20T00:20:08.880Z,8.25
2022-08-20T00:22:41.638Z,11.15
2022-08-20T00:25:13.197Z,6.13
2022-08-20T00:27:45.095Z,7.40
2022-08-20T00:30:16.659Z,5.38
2022-08-20T00:32:48.552Z,6.55
2022-08-20T00:35:20.318Z,9.65
2022-08-20T00:37:52.319Z,11.35
2022-08-20T00:40:24.065Z,13.27
2022-08-20T00:42:57.792Z,7.03
2022-08-20T00:45:29.296Z,8.63
2022-08-20T00:48:01.217Z,11.27
2022-08-20T00:50:34.016Z,6.43
2022-08-20T00:53:05.848Z,7.05
2022-08-20T00:55:37.352Z,7.57
2022-08-20T00:58:10.107Z,6.55
2022-08-20T01:00:42.712Z,7.65
2022-08-20T01:03:15.245Z,7.57
2022-08-20T01:05:47.917Z,6.63
2022-08-20T01:08:19.719Z,7.18
2022-08-20T01:10:53.718Z,9.02
2022-08-20T01:13:26.100Z,8.18
2022-08-20T01:15:57.744Z,8.35
2022-08-20T01:18:29.585Z,5.60
2022-08-20T01:21:01.084Z,7.22
2022-08-20T01:23:33.056Z,7.22
2022-08-20T01:26:04.752Z,6.13
2022-08-20T01:28:36.681Z,6.45
2022-08-20T01:31:08.181Z,4.53
2022-08-20T01:33:40.019Z,4.88
2022-08-20T01:36:13.568Z,5.78
2022-08-20T01:38:54.059Z,5.43
2022-08-20T01:41:26.296Z,8.35
2022-08-20T01:44:00.198Z,5.43
2022-08-20T01:46:33.284Z,8.23
2022-08-20T01:49:12.435Z,7.38
2022-08-20T01:51:45.638Z,5.10
2022-08-20T01:54:20.510Z,8.80
2022-08-20T01:56:52.401Z,6.75
2022-08-20T01:59:23.950Z,6.32
2022-08-20T02:01:55.525Z,5.97
2022-08-20T02:04:27.057Z,5.72
2022-08-20T02:06:58.995Z,3.97
2022-08-20T02:09:30.547Z,5.45
2022-08-20T02:12:03.656Z,4.82
2022-08-20T02:14:35.154Z,6.72
2022-08-20T02:17:07.427Z,4.85
2022-08-20T02:19:38.997Z,5.38
2022-08-20T02:22:10.849Z,6.35
2022-08-20T02:24:43.237Z,6.95
2022-08-20T02:27:15.285Z,5.00
2022-08-20T02:29:46.792Z,5.93
2022-08-20T02:32:32.062Z,6.68
2022-08-20T02:35:08.110Z,6.28
2022-08-20T02:37:39.977Z,6.03
2022-08-20T02:40:11.547Z,5.93
2022-08-20T02:42:43.482Z,7.68
2022-08-20T02:47:52.516Z,6.95
2022-08-20T02:50:24.630Z,7.95
2022-08-20T02:52:56.120Z,6.87
2022-08-20T02:55:28.526Z,6.43
2022-08-20T02:58:00.359Z,8.60
2022-08-20T03:00:38.322Z,5.63
2022-08-20T03:03:10.505Z,7.55
2022-08-20T03:05:42.515Z,7.43
2022-08-20T03:08:14.723Z,7.10
2022-08-20T03:10:46.594Z,5.93
2022-08-20T03:13:18.445Z,6.13
2022-08-20T03:15:50.278Z,6.07
2022-08-20T03:18:21.788Z,10.30
2022-08-20T03:20:53.720Z,8.35
2022-08-20T03:23:26.611Z,8.35
2022-08-20T03:25:58.417Z,8.18
2022-08-20T03:28:29.919Z,14.15
2022-08-20T03:31:01.743Z,9.90
2022-08-20T03:33:33.284Z,7.97
2022-08-20T03:36:05.308Z,9.68
2022-08-20T03:38:36.808Z,10.43
2022-08-20T03:41:08.569Z,8.65
2022-08-20T03:43:44.727Z,9.43
2022-08-20T03:46:23.009Z,11.38
2022-08-20T03:49:01.184Z,8.70
2022-08-20T03:51:45.976Z,10.07
2022-08-20T03:54:24.549Z,9.40
2022-08-20T03:57:12.365Z,8.43
2022-08-20T03:59:44.553Z,11.70
2022-08-20T04:02:16.391Z,11.75
2022-08-20T04:04:47.980Z,9.45
2022-08-20T04:07:26.038Z,10.48
2022-08-20T04:09:57.655Z,10.73
2022-08-20T04:12:29.647Z,10.88
2022-08-20T04:15:02.006Z,15.52
2022-08-20T04:17:34.009Z,11.05
2022-08-20T04:20:08.250Z,10.80
2022-08-20T04:22:42.451Z,15.38
2022-08-20T04:25:30.007Z,13.60
2022-08-20T04:28:07.219Z,15.70
2022-08-20T04:30:38.989Z,12.75
2022-08-20T04:33:16.701Z,11.07
2022-08-20T04:35:54.443Z,13.10
2022-08-20T04:38:26.205Z,13.20
2022-08-20T04:41:22.836Z,10.80
2022-08-20T04:43:54.864Z,10.55
2022-08-20T04:46:28.516Z,15.75
2022-08-20T04:49:01.205Z,10.68
2022-08-20T04:51:33.832Z,16.13
2022-08-20T04:56:40.255Z,14.35
2022-08-20T04:59:11.789Z,12.98
2022-08-20T05:01:43.613Z,9.98
2022-08-20T05:04:15.109Z,10.57
2022-08-20T05:06:46.947Z,8.40
2022-08-20T05:09:18.466Z,9.73
2022-08-20T05:11:50.772Z,9.48
2022-08-20T05:14:22.296Z,11.55
2022-08-20T05:16:57.453Z,10.95
2022-08-20T05:19:29.005Z,10.73
2022-08-20T05:22:01.776Z,9.48
2022-08-20T05:24:33.302Z,10.68
2022-08-20T05:27:05.282Z,11.07
2022-08-20T05:29:36.782Z,11.63
2022-08-20T05:32:08.705Z,8.00
2022-08-20T05:34:40.241Z,12.65
2022-08-20T05:37:12.076Z,11.32
2022-08-20T05:39:44.166Z,12.48
2022-08-20T05:42:16.161Z,13.10
2022-08-20T05:44:47.666Z,11.02
2022-08-20T05:47:19.511Z,9.60
2022-08-20T05:49:53.441Z,8.90
2022-08-20T05:52:25.279Z,8.95
2022-08-20T05:54:56.785Z,11.88
2022-08-20T05:57:28.641Z,11.98
2022-08-20T06:00:00.192Z,11.52
2022-08-20T06:02:50.881Z,9.07
2022-08-20T06:05:22.385Z,11.10
2022-08-20T06:07:54.793Z,11.98
2022-08-20T06:10:29.825Z,9.23
2022-08-20T06:13:02.877Z,11.00
2022-08-20T06:15:34.717Z,8.65
2022-08-20T06:18:16.674Z,12.52
2022-08-20T06:20:59.685Z,9.53
2022-08-20T06:23:43.642Z,11.10
2022-08-20T06:26:24.925Z,8.38
2022-08-20T06:29:02.014Z,8.75
2022-08-20T06:31:35.452Z,9.93
2022-08-20T06:34:07.449Z,7.93
2022-08-20T06:36:39.278Z,12.00
2022-08-20T06:39:10.768Z,9.20
2022-08-20T06:41:42.610Z,11.50
2022-08-20T06:44:14.730Z,8.95
2022-08-20T06:46:46.722Z,9.55
2022-08-20T06:49:18.572Z,7.70
2022-08-20T06:51:52.059Z,9.23
2022-08-20T06:54:29.398Z,9.93
2022-08-20T06:57:01.669Z,10.65
2022-08-20T06:59:33.189Z,16.67
2022-08-20T07:02:06.115Z,9.48
2022-08-20T07:07:09.557Z,10.18
2022-08-20T07:09:41.096Z,8.60
2022-08-20T07:12:12.994Z,10.57
2022-08-20T07:14:44.548Z,11.77
2022-08-20T07:17:16.346Z,11.38
2022-08-20T07:19:47.908Z,16.25
2022-08-20T07:22:19.749Z,10.25
2022-08-20T07:24:51.273Z,11.52
2022-08-20T07:27:23.160Z,10.23
2022-08-20T07:30:15.251Z,12.52
2022-08-20T07:32:47.672Z,14.70
2022-08-20T07:35:19.608Z,10.68
2022-08-20T07:37:51.775Z,9.02
2022-08-20T07:40:26.170Z,11.35
2022-08-20T07:42:58.638Z,14.30
2022-08-20T07:45:30.259Z,11.80
2022-08-20T07:48:02.852Z,11.32
2022-08-20T07:50:34.425Z,14.60
2022-08-20T07:53:05.943Z,12.15
2022-08-20T07:55:37.781Z,18.10
2022-08-20T07:58:09.427Z,10.50
2022-08-20T08:00:41.590Z,14.57
2022-08-20T08:03:13.163Z,12.93
2022-08-20T08:05:45.066Z,12.60
2022-08-20T08:08:17.599Z,15.88
2022-08-20T08:10:49.165Z,17.45
2022-08-20T08:13:20.690Z,12.65
2022-08-20T08:15:52.566Z,14.27
2022-08-20T08:18:27.743Z,15.82
2022-08-20T08:21:01.639Z,12.52
2022-08-20T08:23:34.608Z,19.55
2022-08-20T08:26:06.623Z,13.23
2022-08-20T08:28:47.341Z,18.15
2022-08-20T08:31:19.199Z,11.88
2022-08-20T08:33:50.710Z,15.25
2022-08-20T08:36:22.773Z,11.32
2022-08-20T08:38:55.053Z,16.07
2022-08-20T08:41:26.954Z,17.23
2022-08-20T08:43:58.463Z,15.17
2022-08-20T08:46:30.305Z,16.48
2022-08-20T08:49:02.617Z,14.75
2022-08-20T08:51:35.354Z,14.02
2022-08-20T08:54:07.638Z,17.02
2022-08-20T08:56:39.562Z,13.88
2022-08-20T08:59:11.138Z,12.40
2022-08-20T09:01:54.682Z,12.73
2022-08-20T09:04:30.342Z,16.23
2022-08-20T09:07:02.132Z,13.43
2022-08-20T09:09:33.744Z,15.07
2022-08-20T09:12:05.637Z,13.88
2022-08-20T09:14:37.185Z,12.50
2022-08-20T09:17:08.721Z,14.93
2022-08-20T09:19:40.221Z,13.05
2022-08-20T09:22:11.742Z,16.65
2022-08-20T09:24:43.886Z,14.05
2022-08-20T09:27:15.446Z,15.82
2022-08-20T09:29:49.230Z,14.40
2022-08-20T09:32:21.046Z,14.15
2022-08-20T09:34:56.226Z,15.97
2022-08-20T09:37:27.752Z,16.75
2022-08-20T09:39:59.946Z,10.75
2022-08-20T09:42:31.556Z,13.23
2022-08-20T09:45:03.122Z,12.40
2022-08-20T09:47:34.990Z,14.50
2022-08-20T09:50:06.917Z,13.93
2022-08-20T09:52:40.870Z,12.73
2022-08-20T09:55:12.737Z,12.10
2022-08-20T09:57:46.174Z,14.50
2022-08-20T10:00:18.201Z,10.80
2022-08-20T10:02:49.727Z,8.90
2022-08-20T10:05:21.684Z,12.15
2022-08-20T10:07:54.319Z,11.23
2022-08-20T10:10:26.296Z,10.25
2022-08-20T10:12:57.820Z,18.87
2022-08-20T10:15:29.639Z,11.20
2022-08-20T10:18:03.605Z,9.65
2022-08-20T10:20:36.007Z,8.10
2022-08-20T10:23:07.524Z,7.85
2022-08-20T10:25:39.492Z,8.95
2022-08-20T10:28:11.075Z,9.70
2022-08-20T10:30:43.677Z,8.13
2022-08-20T10:33:15.184Z,8.40
2022-08-20T10:35:47.178Z,8.45
2022-08-20T10:38:18.679Z,8.73
2022-08-20T10:40:52.616Z,9.10
2022-08-20T10:43:24.299Z,7.75
2022-08-20T10:45:56.331Z,5.82
2022-08-20T10:48:27.877Z,7.18
2022-08-20T10:50:59.753Z,7.30
2022-08-20T10:53:31.283Z,9.97
2022-08-20T10:56:03.161Z,6.28
2022-08-20T10:58:39.606Z,5.37
2022-08-20T11:01:11.711Z,5.00
2022-08-20T11:03:43.251Z,3.90
2022-08-20T11:06:15.076Z,6.45
2022-08-20T11:08:46.585Z,4.33
2022-08-20T11:11:18.531Z,4.35
2022-08-20T11:13:50.087Z,5.47
2022-08-20T11:16:21.914Z,4.57
2022-08-20T11:21:26.267Z,4.85
2022-08-20T11:24:02.237Z,4.55
2022-08-20T11:26:34.650Z,5.15
2022-08-20T11:29:06.159Z,2.63
2022-08-20T11:31:38.219Z,3.78
2022-08-20T11:34:12.760Z,5.10
2022-08-20T11:36:44.808Z,3.97
2022-08-20T11:39:16.327Z,4.55
2022-08-20T11:41:48.264Z,5.93
2022-08-20T11:44:26.990Z,4.68
2022-08-20T11:47:00.339Z,5.22
2022-08-20T11:49:31.913Z,6.72
2022-08-20T11:52:05.343Z,4.65
2022-08-20T11:54:40.423Z,5.00
2022-08-20T11:57:13.149Z,4.57
2022-08-20T11:59:44.656Z,4.68
2022-08-20T12:02:16.573Z,6.55
2022-08-20T12:04:48.204Z,4.23
2022-08-20T12:07:20.006Z,5.47
2022-08-20T12:09:51.521Z,6.68
2022-08-20T12:12:24.535Z,4.68
2022-08-20T12:14:56.119Z,5.00
2022-08-20T12:17:28.004Z,4.95
2022-08-20T12:19:59.509Z,3.38
2022-08-20T12:22:31.384Z,3.75
2022-08-20T12:25:02.924Z,3.37
2022-08-20T12:27:34.772Z,4.10
2022-08-20T12:30:06.328Z,2.85
2022-08-20T12:32:38.253Z,3.00
2022-08-20T12:35:09.945Z,3.30
2022-08-20T12:37:41.760Z,4.60
2022-08-20T12:40:13.685Z,4.57
2022-08-20T12:42:45.754Z,3.45
2022-08-20T12:45:17.260Z,5.07
2022-08-20T12:47:49.659Z,3.95
2022-08-20T12:50:21.518Z,4.70
2022-08-20T12:52:53.114Z,2.43
2022-08-20T12:55:25.148Z,3.67
2022-08-20T12:57:57.085Z,2.73
2022-08-20T13:00:28.943Z,2.50
2022-08-20T13:05:33.549Z,7.25
2022-08-20T13:08:05.909Z,3.13
2022-08-20T13:10:37.843Z,7.63
2022-08-20T13:13:09.361Z,3.27
2022-08-20T13:15:41.259Z,2.20
2022-08-20T13:18:12.797Z,5.87
2022-08-20T13:20:45.053Z,3.55
2022-08-20T13:23:16.620Z,4.28
2022-08-20T13:25:48.494Z,4.05
2022-08-20T13:28:19.995Z,3.33
2022-08-20T13:30:52.020Z,3.70
2022-08-20T13:33:25.141Z,3.43
2022-08-20T13:35:57.460Z,9.15
2022-08-20T13:38:28.972Z,4.57
2022-08-20T13:41:00.756Z,3.45
2022-08-20T13:43:32.247Z,3.85
2022-08-20T13:46:05.244Z,4.57
2022-08-20T13:48:36.788Z,4.20
2022-08-20T13:51:08.689Z,4.38
2022-08-20T13:53:40.193Z,6.40
2022-08-20T13:56:12.192Z,4.40
2022-08-20T13:58:43.709Z,4.87
2022-08-20T14:01:15.546Z,5.65
2022-08-20T14:03:47.847Z,5.13
2022-08-20T14:08:52.065Z,6.57
2022-08-20T14:11:23.946Z,7.50
2022-08-20T14:13:55.468Z,5.55
2022-08-20T14:16:28.480Z,5.82
2022-08-20T14:19:01.268Z,6.03
2022-08-20T14:21:33.087Z,7.18
2022-08-20T14:24:04.590Z,5.70
2022-08-20T14:26:36.116Z,8.95
2022-08-20T14:29:07.638Z,6.28
2022-08-20T14:31:39.703Z,5.72
2022-08-20T14:34:11.315Z,9.63
2022-08-20T14:36:42.822Z,6.72
2022-08-20T14:39:18.545Z,5.53
2022-08-20T14:41:52.124Z,4.22
2022-08-20T14:44:23.608Z,7.72
2022-08-20T14:46:55.348Z,5.70
2022-08-20T14:49:26.853Z,5.07
2022-08-20T14:51:58.821Z,5.50
2022-08-20T14:54:30.323Z,6.47
2022-08-20T14:57:02.293Z,7.05
2022-08-20T14:59:34.298Z,11.17
2022-08-20T15:02:06.456Z,7.73
2022-08-20T15:04:38.023Z,8.65
2022-08-20T15:07:13.099Z,4.50
2022-08-20T15:09:44.873Z,6.35
2022-08-20T15:12:16.709Z,6.72
2022-08-20T15:14:49.062Z,8.40
2022-08-20T15:17:21.017Z,5.32
2022-08-20T15:19:52.577Z,9.00
2022-08-20T15:22:24.370Z,5.95
2022-08-20T15:24:57.655Z,5.15
2022-08-20T15:27:29.301Z,5.90
2022-08-20T15:30:01.463Z,7.47
2022-08-20T15:32:33.104Z,5.45
2022-08-20T15:35:05.098Z,7.18
2022-08-20T15:37:39.365Z,12.10
2022-08-20T15:40:11.316Z,6.05
2022-08-20T15:42:42.848Z,7.50
2022-08-20T15:45:21.733Z,5.75
2022-08-20T15:47:53.894Z,7.70
2022-08-20T15:50:25.736Z,8.45
2022-08-20T15:52:57.438Z,8.50
2022-08-20T15:55:29.443Z,5.07
2022-08-20T15:58:01.138Z,10.50
2022-08-20T16:00:32.674Z,6.90
2022-08-20T16:03:05.992Z,6.15
2022-08-20T16:05:37.600Z,7.90
2022-08-20T16:08:09.180Z,8.02
2022-08-20T16:10:41.175Z,7.32
2022-08-20T16:13:12.704Z,12.20
2022-08-20T16:15:49.317Z,7.25
2022-08-20T16:18:21.152Z,9.10
2022-08-20T16:20:53.203Z,12.63
2022-08-20T16:23:24.744Z,9.33
2022-08-20T16:25:56.605Z,8.45
2022-08-20T16:28:28.838Z,17.00
2022-08-20T16:31:00.692Z,7.70
2022-08-20T16:33:32.338Z,8.35
2022-08-20T16:36:04.377Z,6.25
2022-08-20T16:38:35.918Z,5.40
2022-08-20T16:41:07.734Z,9.82
2022-08-20T16:43:39.267Z,6.70
2022-08-20T16:46:11.064Z,9.60
2022-08-20T16:48:42.602Z,7.82
2022-08-20T16:51:14.130Z,10.77
2022-08-20T16:53:45.644Z,7.65
2022-08-20T16:56:17.172Z,8.43
2022-08-20T16:58:48.678Z,7.32
2022-08-20T17:01:20.673Z,9.80
2022-08-20T17:03:52.282Z,8.90
2022-08-20T17:06:24.528Z,8.60
2022-08-20T17:08:56.049Z,9.13
2022-08-20T17:11:29.339Z,9.48
2022-08-20T17:14:00.880Z,8.40
2022-08-20T17:16:33.228Z,7.95
2022-08-20T17:19:04.745Z,9.18
2022-08-20T17:21:39.962Z,8.68
2022-08-20T17:24:16.545Z,8.40
2022-08-20T17:26:48.705Z,8.23
2022-08-20T17:29:21.276Z,8.30
2022-08-20T17:31:53.132Z,7.30
2022-08-20T17:34:24.643Z,8.50
2022-08-20T17:36:56.532Z,8.93
2022-08-20T17:39:28.092Z,8.90
2022-08-20T17:42:00.025Z,5.68
2022-08-20T17:44:33.478Z,12.48
2022-08-20T17:47:06.445Z,7.05
2022-08-20T17:49:39.371Z,7.40
2022-08-20T17:52:11.280Z,7.05
2022-08-20T17:54:42.822Z,4.72
2022-08-20T17:57:14.685Z,5.95
2022-08-20T18:00:01.331Z,8.93
2022-08-20T18:02:34.003Z,8.32
2022-08-20T18:05:05.935Z,6.85
2022-08-20T18:07:37.451Z,6.45
2022-08-20T18:10:09.236Z,7.75
2022-08-20T18:12:40.776Z,17.88
2022-08-20T18:15:12.306Z,8.52
2022-08-20T18:17:44.415Z,6.07
2022-08-20T18:20:16.447Z,5.80
2022-08-20T18:22:47.970Z,3.80
2022-08-20T18:25:19.863Z,4.43
2022-08-20T18:27:51.387Z,2.45
2022-08-20T18:30:23.386Z,2.92
2022-08-20T18:32:54.894Z,2.67
2022-08-20T18:35:26.742Z,2.85
2022-08-20T18:37:58.328Z,5.47
2022-08-20T18:40:30.524Z,8.55
2022-08-20T18:43:04.872Z,4.80
2022-08-20T18:45:36.727Z,3.78
2022-08-20T18:48:08.342Z,2.25
2022-08-20T18:50:40.263Z,2.05
2022-08-20T18:53:12.061Z,3.30
2022-08-20T18:55:44.021Z,2.28
2022-08-20T18:58:15.549Z,3.50
2022-08-20T19:00:47.177Z,3.78
2022-08-20T19:03:19.808Z,3.08
2022-08-20T19:05:51.707Z,2.63
2022-08-20T19:08:23.203Z,2.95
2022-08-20T19:10:55.479Z,3.25
2022-08-20T19:13:26.993Z,2.30
2022-08-20T19:15:58.521Z,3.35
2022-08-20T19:18:30.085Z,3.70
2022-08-20T19:21:01.981Z,4.82
2022-08-20T19:23:33.520Z,3.63
2022-08-20T19:26:05.889Z,3.63
2022-08-20T19:28:49.420Z,4.75
2022-08-20T19:31:21.277Z,3.13
2022-08-20T19:33:52.817Z,4.72
2022-08-20T19:36:28.368Z,5.95
2022-08-20T19:39:00.140Z,6.00
2022-08-20T19:44:04.498Z,3.33
2022-08-20T19:46:36.143Z,5.43
2022-08-20T19:49:07.881Z,3.72
2022-08-20T19:51:44.142Z,4.32
2022-08-20T19:54:19.484Z,3.65
2022-08-20T19:56:52.097Z,5.18
2022-08-20T19:59:26.742Z,4.13
2022-08-20T20:02:03.016Z,3.40
2022-08-20T20:04:34.610Z,9.73
2022-08-20T20:07:06.461Z,4.10
2022-08-20T20:09:38.032Z,4.88
2022-08-20T20:12:10.230Z,4.80
2022-08-20T20:14:54.523Z,5.32
2022-08-20T20:17:26.490Z,6.13
2022-08-20T20:19:59.154Z,3.47
2022-08-20T20:22:31.047Z,3.38
2022-08-20T20:25:02.912Z,5.28
2022-08-20T20:27:34.898Z,2.90
2022-08-20T20:30:06.428Z,5.38
2022-08-20T20:32:38.242Z,6.32
2022-08-20T20:35:09.762Z,5.18
2022-08-20T20:37:49.050Z,4.22
2022-08-20T20:40:22.878Z,13.90
2022-08-20T20:42:54.454Z,2.95
2022-08-20T20:45:26.342Z,4.85
2022-08-20T20:47:57.908Z,5.05
2022-08-20T20:50:30.021Z,3.90
2022-08-20T20:53:01.585Z,3.37
2022-08-20T20:55:33.181Z,4.15
2022-08-20T20:58:04.849Z,5.20
2022-08-20T21:00:36.884Z,9.05
2022-08-20T21:03:08.474Z,5.73
2022-08-20T21:05:40.766Z,4.03
2022-08-20T21:08:12.305Z,4.80
2022-08-20T21:10:44.285Z,4.60
2022-08-20T21:13:16.382Z,11.32
2022-08-20T21:15:48.356Z,3.72
2022-08-20T21:18:24.096Z,4.13
2022-08-20T21:20:58.461Z,2.88
2022-08-20T21:23:39.637Z,3.75
2022-08-20T21:26:13.262Z,3.33
2022-08-20T21:28:44.898Z,4.00
2022-08-20T21:31:16.829Z,3.65
2022-08-20T21:33:48.323Z,4.97
2022-08-20T21:36:19.880Z,3.22
2022-08-20T21:38:51.726Z,4.30
2022-08-20T21:41:30.057Z,3.45
2022-08-20T21:44:01.940Z,2.60
2022-08-20T21:46:33.623Z,5.47
2022-08-20T21:49:05.249Z,6.43
2022-08-20T21:51:37.218Z,2.55
2022-08-20T21:54:08.721Z,4.22
2022-08-20T21:56:40.868Z,6.60
2022-08-20T21:59:12.444Z,3.30
2022-08-20T22:01:44.048Z,3.72
2022-08-20T22:04:15.700Z,5.45
2022-08-20T22:06:47.237Z,4.20
2022-08-20T22:09:18.853Z,2.47
2022-08-20T22:11:54.163Z,2.40
2022-08-20T22:14:26.782Z,2.28
2022-08-20T22:16:58.643Z,2.38
2022-08-20T22:19:30.474Z,2.70
2022-08-20T22:22:02.434Z,10.35
2022-08-20T22:24:33.975Z,2.78
2022-08-20T22:27:05.848Z,3.03
2022-08-20T22:29:37.407Z,6.70
2022-08-20T22:32:09.261Z,3.13
2022-08-20T22:34:41.005Z,2.20
2022-08-20T22:37:12.557Z,2.75
2022-08-20T22:39:44.083Z,2.63
2022-08-20T22:42:15.678Z,3.35
2022-08-20T22:44:47.172Z,2.38
2022-08-20T22:47:18.706Z,2.33
2022-08-20T22:49:50.215Z,2.35
2022-08-20T22:52:22.138Z,2.05
2022-08-20T22:54:58.240Z,2.55
2022-08-20T22:57:31.453Z,3.00
2022-08-20T23:00:06.003Z,6.60
2022-08-20T23:02:37.928Z,3.20
2022-08-20T23:05:09.720Z,2.80
2022-08-20T23:07:41.610Z,2.08
2022-08-20T23:10:13.450Z,3.35
2022-08-20T23:12:44.958Z,1.88
2022-08-20T23:15:16.779Z,4.45
2022-08-20T23:17:48.291Z,2.50
2022-08-20T23:20:20.157Z,2.72
2022-08-20T23:22:51.745Z,3.10
2022-08-20T23:25:26.827Z,2.88
2022-08-20T23:30:36.425Z,3.78
2022-08-20T23:33:08.084Z,3.20
2022-08-20T23:35:39.973Z,2.90
2022-08-20T23:38:11.481Z,2.72
2022-08-20T23:40:43.413Z,3.60
2022-08-20T23:43:14.931Z,3.67
2022-08-20T23:45:46.731Z,3.13
2022-08-20T23:48:18.456Z,1.98
2022-08-20T23:50:50.243Z,3.42
2022-08-20T23:53:21.751Z,4.72
2022-08-20T23:55:53.587Z,3.20
2022-08-20T23:58:25.105Z,6.18
